createdAt,value
2018-03-15T00:00:45.038Z,12.98
2018-03-15T00:03:20.562Z,11.55
2018-03-15T00:05:51.175Z,14.23
2018-03-15T00:08:22.056Z,13.35
2018-03-15T00:10:53.477Z,12.48
2018-03-15T00:13:24.109Z,12.20
2018-03-15T00:15:55.242Z,12.77
2018-03-15T00:18:26.119Z,14.65
2018-03-15T00:20:57.853Z,11.65
2018-03-15T00:23:28.980Z,12.88
2018-03-15T00:26:00.043Z,13.10
2018-03-15T00:28:31.089Z,14.25
2018-03-15T00:31:02.796Z,11.98
2018-03-15T00:33:34.244Z,14.43
2018-03-15T00:36:05.605Z,13.73
2018-03-15T00:38:37.051Z,14.77
2018-03-15T00:41:08.679Z,13.90
2018-03-15T00:43:39.731Z,12.52
2018-03-15T00:46:10.557Z,12.07
2018-03-15T00:48:42.396Z,12.77
2018-03-15T00:51:14.320Z,13.80
2018-03-15T00:53:45.719Z,11.90
2018-03-15T00:56:17.926Z,14.00
2018-03-15T00:58:49.353Z,13.05
2018-03-15T01:01:20.996Z,14.35
2018-03-15T01:03:53.210Z,11.10
2018-03-15T01:06:24.692Z,11.52
2018-03-15T01:08:56.149Z,12.18
2018-03-15T01:11:27.877Z,11.55
2018-03-15T01:13:58.724Z,13.23
2018-03-15T01:16:29.611Z,10.75
2018-03-15T01:19:00.846Z,12.70
2018-03-15T01:21:31.788Z,14.60
2018-03-15T01:24:03.039Z,14.87
2018-03-15T01:26:34.117Z,12.30
2018-03-15T01:29:08.241Z,11.90
2018-03-15T01:31:39.115Z,14.38
2018-03-15T01:34:11.055Z,14.13
2018-03-15T01:36:42.195Z,13.98
2018-03-15T01:39:13.293Z,12.93
2018-03-15T01:41:44.303Z,12.15
2018-03-15T01:44:14.982Z,13.48
2018-03-15T01:46:45.910Z,12.00
2018-03-15T01:49:17.450Z,12.35
2018-03-15T01:51:47.879Z,11.23
2018-03-15T01:54:18.422Z,13.27
2018-03-15T01:56:49.241Z,11.88
2018-03-15T01:59:20.256Z,13.68
2018-03-15T02:01:52.014Z,13.23
2018-03-15T02:04:22.238Z,13.82
2018-03-15T02:06:53.427Z,13.75
2018-03-15T02:09:24.378Z,14.43
2018-03-15T02:11:54.884Z,13.48
2018-03-15T02:14:25.577Z,13.32
2018-03-15T02:16:56.181Z,14.38
2018-03-15T02:19:26.502Z,15.63
2018-03-15T02:21:57.039Z,14.95
2018-03-15T02:24:27.625Z,14.77
2018-03-15T02:26:58.423Z,16.52
2018-03-15T02:29:29.502Z,14.65
2018-03-15T02:31:59.956Z,13.65
2018-03-15T02:34:30.140Z,15.85
2018-03-15T02:37:00.319Z,14.43
2018-03-15T02:39:30.915Z,19.33
2018-03-15T02:42:00.851Z,14.57
2018-03-15T02:44:30.967Z,15.18
2018-03-15T02:47:01.006Z,17.20
2018-03-15T02:49:31.836Z,14.95
2018-03-15T02:52:02.380Z,18.15
2018-03-15T02:54:33.272Z,14.23
2018-03-15T02:57:03.744Z,17.50
2018-03-15T02:59:34.284Z,14.35
2018-03-15T03:02:05.058Z,15.82
2018-03-15T03:04:34.926Z,15.80
2018-03-15T03:07:06.199Z,16.75
2018-03-15T03:09:36.308Z,18.67
2018-03-15T03:12:07.182Z,17.15
2018-03-15T03:14:37.628Z,18.35
2018-03-15T03:17:07.686Z,16.05
2018-03-15T03:19:38.513Z,16.95
2018-03-15T03:22:08.806Z,16.25
2018-03-15T03:24:38.797Z,17.60
2018-03-15T03:27:09.360Z,15.27
2018-03-15T03:29:39.164Z,16.60
2018-03-15T03:32:09.357Z,16.40
2018-03-15T03:34:39.678Z,16.50
2018-03-15T03:37:09.561Z,18.02
2018-03-15T03:39:40.528Z,16.33
2018-03-15T03:42:10.835Z,17.00
2018-03-15T03:44:41.539Z,15.38
2018-03-15T03:47:11.404Z,19.08
2018-03-15T03:49:41.773Z,17.83
2018-03-15T03:52:12.382Z,17.92
2018-03-15T03:54:42.520Z,17.02
2018-03-15T03:57:13.014Z,14.80
2018-03-15T03:59:43.249Z,14.93
2018-03-15T04:02:13.332Z,15.48
2018-03-15T04:04:43.329Z,14.23
2018-03-15T04:07:14.170Z,14.95
2018-03-15T04:09:45.109Z,13.80
2018-03-15T04:12:15.413Z,13.85
2018-03-15T04:14:45.500Z,15.45
2018-03-15T04:17:15.553Z,17.40
2018-03-15T04:19:46.003Z,15.85
2018-03-15T04:22:16.632Z,14.85
2018-03-15T04:24:47.223Z,14.50
2018-03-15T04:27:17.784Z,14.23
2018-03-15T04:29:48.672Z,15.35
2018-03-15T04:32:19.484Z,16.30
2018-03-15T04:34:49.635Z,14.38
2018-03-15T04:37:19.502Z,13.80
2018-03-15T04:39:50.267Z,15.43
2018-03-15T04:42:20.750Z,13.85
2018-03-15T04:44:50.785Z,14.52
2018-03-15T04:47:21.557Z,16.50
2018-03-15T04:49:52.008Z,13.75
2018-03-15T04:52:22.080Z,16.42
2018-03-15T04:54:52.172Z,13.48
2018-03-15T04:57:23.094Z,12.52
2018-03-15T04:59:53.298Z,14.15
2018-03-15T05:02:24.299Z,16.62
2018-03-15T05:04:54.522Z,15.95
2018-03-15T05:07:24.791Z,14.93
2018-03-15T05:09:55.431Z,14.40
2018-03-15T05:12:25.423Z,14.87
2018-03-15T05:14:55.554Z,15.85
2018-03-15T05:17:26.420Z,15.77
2018-03-15T05:19:57.741Z,14.55
2018-03-15T05:22:27.706Z,16.90
2018-03-15T05:24:58.420Z,15.00
2018-03-15T05:27:30.332Z,17.83
2018-03-15T05:30:01.883Z,16.90
2018-03-15T05:32:32.555Z,16.27
2018-03-15T05:35:03.182Z,16.90
2018-03-15T05:37:34.213Z,17.70
2018-03-15T05:40:04.781Z,18.62
2018-03-15T05:42:36.385Z,17.50
2018-03-15T05:45:07.454Z,16.67
2018-03-15T05:47:38.410Z,17.75
2018-03-15T05:50:09.403Z,17.02
2018-03-15T05:52:40.175Z,18.80
2018-03-15T05:55:11.318Z,18.60
2018-03-15T05:57:43.542Z,17.73
2018-03-15T06:00:14.666Z,18.20
2018-03-15T06:02:45.904Z,19.85
2018-03-15T06:05:21.144Z,16.55
2018-03-15T06:07:52.330Z,15.95
2018-03-15T06:10:24.117Z,17.83
2018-03-15T06:12:56.503Z,18.05
2018-03-15T06:15:28.344Z,15.75
2018-03-15T06:18:00.571Z,17.35
2018-03-15T06:20:31.929Z,19.85
2018-03-15T06:23:05.834Z,19.12
2018-03-15T06:25:55.238Z,15.90
2018-03-15T06:28:27.702Z,16.92
2018-03-15T06:31:00.834Z,14.53
2018-03-15T06:33:33.235Z,18.05
2018-03-15T06:36:05.024Z,20.40
2018-03-15T06:38:41.276Z,18.13
2018-03-15T06:41:12.955Z,16.37
2018-03-15T06:43:49.626Z,18.20
2018-03-15T06:46:27.448Z,18.20
2018-03-15T06:48:59.311Z,17.60
2018-03-15T06:51:32.456Z,19.83
2018-03-15T06:54:03.817Z,19.27
2018-03-15T06:56:35.686Z,18.60
2018-03-15T06:59:10.083Z,17.27
2018-03-15T07:01:41.389Z,15.67
2018-03-15T07:04:18.249Z,18.30
2018-03-15T07:06:50.322Z,16.20
2018-03-15T07:09:25.014Z,19.27
2018-03-15T07:12:04.284Z,17.93
2018-03-15T07:14:35.796Z,17.10
2018-03-15T07:17:07.259Z,18.03
2018-03-15T07:19:38.258Z,18.97
2018-03-15T07:22:11.543Z,19.30
2018-03-15T07:24:43.441Z,18.10
2018-03-15T07:27:15.354Z,17.63
2018-03-15T07:29:47.495Z,15.93
2018-03-15T07:32:20.648Z,20.63
2018-03-15T07:34:53.213Z,18.57
2018-03-15T07:37:24.460Z,17.53
2018-03-15T07:39:55.965Z,16.83
2018-03-15T07:42:27.108Z,17.93
2018-03-15T07:44:57.933Z,17.17
2018-03-15T07:47:29.482Z,19.10
2018-03-15T07:50:00.733Z,18.43
2018-03-15T07:52:32.340Z,16.83
2018-03-15T07:55:04.173Z,19.03
2018-03-15T07:57:36.110Z,16.87
2018-03-15T08:00:08.959Z,16.00
2018-03-15T08:02:40.551Z,17.63
2018-03-15T08:05:13.410Z,16.33
2018-03-15T08:07:47.322Z,15.60
2018-03-15T08:10:19.904Z,14.00
2018-03-15T08:12:52.175Z,18.27
2018-03-15T08:15:23.058Z,15.73
2018-03-15T08:17:54.265Z,15.17
2018-03-15T08:20:25.320Z,19.83
2018-03-15T08:22:56.454Z,14.37
2018-03-15T08:25:27.350Z,16.27
2018-03-15T08:27:58.420Z,17.30
2018-03-15T08:30:29.767Z,14.73
2018-03-15T08:33:01.166Z,16.07
2018-03-15T08:35:32.772Z,19.73
2018-03-15T08:38:04.967Z,15.07
2018-03-15T08:40:36.629Z,15.63
2018-03-15T08:43:08.064Z,15.97
2018-03-15T08:45:39.630Z,15.90
2018-03-15T08:48:12.423Z,17.13
2018-03-15T08:50:54.427Z,12.07
2018-03-15T08:53:26.681Z,15.83
2018-03-15T08:56:02.011Z,14.23
2018-03-15T08:58:34.037Z,17.07
2018-03-15T09:01:07.237Z,16.20
2018-03-15T09:03:41.376Z,12.70
2018-03-15T09:06:15.249Z,14.45
2018-03-15T09:08:47.184Z,12.87
2018-03-15T09:11:19.463Z,13.57
2018-03-15T09:13:51.009Z,12.80
2018-03-15T09:16:23.557Z,12.97
2018-03-15T09:18:54.368Z,11.83
2018-03-15T09:21:25.328Z,12.53
2018-03-15T09:23:56.186Z,12.80
2018-03-15T09:26:28.082Z,11.53
2018-03-15T09:29:01.040Z,10.60
2018-03-15T09:31:34.229Z,9.97
2018-03-15T09:34:05.308Z,11.03
2018-03-15T09:36:38.217Z,11.60
2018-03-15T09:39:11.620Z,11.10
2018-03-15T09:41:45.249Z,10.85
2018-03-15T09:44:16.494Z,11.17
2018-03-15T09:46:48.173Z,10.23
2018-03-15T09:49:19.110Z,9.83
2018-03-15T09:51:50.226Z,10.60
2018-03-15T09:54:29.112Z,12.57
2018-03-15T09:57:13.855Z,11.27
2018-03-15T09:59:45.692Z,7.87
2018-03-15T10:02:20.439Z,12.23
2018-03-15T10:04:51.265Z,10.37
2018-03-15T10:07:22.717Z,8.17
2018-03-15T10:09:57.209Z,10.80
2018-03-15T10:12:29.486Z,9.63
2018-03-15T10:15:03.094Z,8.10
2018-03-15T10:17:34.148Z,10.17
2018-03-15T10:20:05.478Z,9.13
2018-03-15T10:22:37.714Z,8.10
2018-03-15T10:25:26.393Z,9.50
2018-03-15T10:27:50.577Z,11.50
2018-03-15T10:30:22.695Z,9.13
2018-03-15T10:33:05.666Z,8.97
2018-03-15T10:35:36.570Z,8.80
2018-03-15T10:38:09.153Z,9.27
2018-03-15T10:40:40.357Z,8.60
2018-03-15T10:43:13.059Z,10.23
2018-03-15T10:45:45.162Z,9.77
2018-03-15T10:48:16.440Z,9.37
2018-03-15T10:50:48.919Z,10.07
2018-03-15T10:53:21.713Z,9.93
2018-03-15T10:55:53.816Z,11.27
2018-03-15T10:58:31.586Z,9.87
2018-03-15T11:04:37.242Z,10.40
2018-03-15T11:07:13.057Z,10.77
2018-03-15T11:09:46.937Z,11.73
2018-03-15T11:12:18.591Z,12.17
2018-03-15T11:14:51.100Z,12.07
2018-03-15T11:17:22.742Z,11.47
2018-03-15T11:19:55.617Z,11.80
2018-03-15T11:22:28.205Z,12.98
2018-03-15T11:24:59.130Z,14.03
2018-03-15T11:27:31.272Z,12.97
2018-03-15T11:33:37.007Z,12.63
2018-03-15T11:36:09.872Z,13.67
2018-03-15T11:38:42.706Z,13.20
2018-03-15T11:41:26.353Z,11.43
2018-03-15T11:43:58.168Z,12.07
2018-03-15T11:46:30.060Z,10.73
2018-03-15T11:49:01.216Z,12.83
2018-03-15T11:51:35.308Z,11.90
2018-03-15T11:54:08.499Z,11.30
2018-03-15T11:56:43.707Z,11.97
2018-03-15T12:02:11.399Z,11.10
2018-03-15T12:04:59.152Z,10.37
2018-03-15T12:07:30.232Z,12.97
2018-03-15T12:10:07.316Z,10.00
2018-03-15T12:12:42.307Z,10.33
2018-03-15T12:15:15.561Z,11.47
2018-03-15T12:17:47.446Z,11.53
2018-03-15T12:20:19.421Z,11.20
2018-03-15T12:22:54.634Z,9.77
2018-03-15T12:25:46.970Z,9.70
2018-03-15T12:28:28.912Z,10.20
2018-03-15T12:30:59.428Z,10.50
2018-03-15T12:33:32.897Z,10.53
2018-03-15T12:36:04.313Z,10.60
2018-03-15T12:38:36.289Z,9.33
2018-03-15T12:41:08.197Z,8.93
2018-03-15T12:43:42.232Z,9.30
2018-03-15T12:46:15.370Z,8.63
2018-03-15T12:48:47.656Z,9.23
2018-03-15T12:51:23.737Z,9.10
2018-03-15T12:54:06.709Z,9.37
2018-03-15T12:56:39.762Z,10.30
2018-03-15T12:59:11.910Z,7.90
2018-03-15T13:01:55.818Z,7.93
2018-03-15T13:04:44.322Z,8.03
2018-03-15T13:10:11.129Z,8.73
2018-03-15T13:12:43.135Z,8.45
2018-03-15T13:15:14.310Z,8.03
2018-03-15T13:17:48.386Z,7.43
2018-03-15T13:23:16.698Z,8.37
2018-03-15T13:26:12.466Z,8.30
2018-03-15T13:28:44.886Z,7.67
2018-03-15T13:31:21.189Z,10.20
2018-03-15T13:33:55.090Z,9.63
2018-03-15T13:36:31.527Z,7.70
2018-03-15T13:39:04.390Z,8.53
2018-03-15T13:41:37.518Z,5.97
2018-03-15T13:44:11.726Z,8.35
2018-03-15T13:46:43.410Z,7.40
2018-03-15T13:49:14.345Z,5.53
2018-03-15T13:54:32.977Z,9.23
2018-03-15T13:57:06.525Z,8.67
2018-03-15T13:59:41.051Z,7.63
2018-03-15T14:02:15.237Z,8.18
2018-03-15T14:04:47.462Z,6.20
2018-03-15T14:07:24.789Z,5.87
2018-03-15T14:09:56.385Z,5.37
2018-03-15T14:12:32.291Z,5.23
2018-03-15T14:15:06.481Z,7.23
2018-03-15T14:17:46.251Z,5.50
2018-03-15T14:20:46.374Z,5.67
2018-03-15T14:26:47.266Z,5.10
2018-03-15T14:29:19.554Z,5.63
2018-03-15T14:31:51.040Z,5.70
2018-03-15T14:34:22.470Z,6.93
2018-03-15T14:36:52.991Z,8.30
2018-03-15T14:39:24.385Z,8.50
2018-03-15T14:41:55.904Z,8.20
2018-03-15T14:44:26.432Z,7.20
2018-03-15T14:46:58.082Z,7.63
2018-03-15T14:49:30.042Z,7.03
2018-03-15T14:52:04.392Z,7.13
2018-03-15T14:54:35.986Z,6.23
2018-03-15T14:57:07.070Z,7.00
2018-03-15T14:59:38.881Z,6.78
2018-03-15T15:02:09.652Z,6.90
2018-03-15T15:04:40.551Z,10.80
2018-03-15T15:07:12.893Z,8.43
2018-03-15T15:09:49.282Z,6.00
2018-03-15T15:12:21.003Z,8.43
2018-03-15T15:14:52.993Z,6.50
2018-03-15T15:17:25.167Z,6.37
2018-03-15T15:19:57.199Z,8.13
2018-03-15T15:22:29.024Z,9.53
2018-03-15T15:25:02.680Z,6.47
2018-03-15T15:27:34.995Z,7.57
2018-03-15T15:30:10.312Z,8.37
2018-03-15T15:32:41.091Z,7.33
2018-03-15T15:35:11.854Z,7.50
2018-03-15T15:37:43.610Z,12.18
2018-03-15T15:40:15.160Z,9.10
2018-03-15T15:42:46.717Z,8.63
2018-03-15T15:45:18.825Z,10.73
2018-03-15T15:47:49.665Z,6.87
2018-03-15T15:50:21.373Z,11.63
2018-03-15T15:52:52.797Z,8.00
2018-03-15T15:55:24.934Z,10.00
2018-03-15T15:57:56.710Z,9.13
2018-03-15T16:00:28.118Z,10.13
2018-03-15T16:02:59.441Z,9.17
2018-03-15T16:05:31.591Z,9.50
2018-03-15T16:08:03.016Z,9.97
2018-03-15T16:10:33.957Z,18.97
2018-03-15T16:13:05.135Z,11.93
2018-03-15T16:15:36.872Z,9.80
2018-03-15T16:18:08.247Z,8.77
2018-03-15T16:20:45.869Z,31.90
2018-03-15T16:23:16.762Z,21.03
2018-03-15T16:25:49.623Z,51.50
2018-03-15T16:28:20.344Z,8.87
2018-03-15T16:30:51.501Z,10.93
2018-03-15T16:33:28.643Z,7.70
2018-03-15T16:36:04.627Z,9.40
2018-03-15T16:38:35.788Z,9.60
2018-03-15T16:41:07.851Z,7.97
2018-03-15T16:43:38.537Z,8.53
2018-03-15T16:46:09.855Z,9.77
2018-03-15T16:48:40.993Z,8.10
2018-03-15T16:51:12.028Z,8.37
2018-03-15T16:53:44.624Z,11.00
2018-03-15T16:56:17.719Z,7.80
2018-03-15T16:58:52.732Z,8.93
2018-03-15T17:01:27.145Z,8.37
2018-03-15T17:03:59.109Z,8.00
2018-03-15T17:06:30.344Z,10.50
2018-03-15T17:09:01.193Z,12.60
2018-03-15T17:11:33.131Z,13.67
2018-03-15T17:14:03.619Z,11.73
2018-03-15T17:16:34.836Z,8.80
2018-03-15T17:19:05.371Z,12.03
2018-03-15T17:21:36.012Z,9.30
2018-03-15T17:24:07.601Z,10.70
2018-03-15T17:26:44.590Z,10.27
2018-03-15T17:29:15.348Z,10.17
2018-03-15T17:31:45.942Z,11.20
2018-03-15T17:34:17.234Z,10.93
2018-03-15T17:36:56.205Z,11.73
2018-03-15T17:39:28.502Z,13.43
2018-03-15T17:42:00.171Z,12.57
2018-03-15T17:44:31.682Z,11.07
2018-03-15T17:47:03.287Z,11.13
2018-03-15T17:49:33.949Z,13.87
2018-03-15T17:52:05.376Z,13.10
2018-03-15T17:54:35.888Z,9.87
2018-03-15T17:57:06.426Z,11.80
2018-03-15T17:59:36.959Z,9.63
2018-03-15T18:02:08.768Z,11.73
2018-03-15T18:04:39.292Z,12.97
2018-03-15T18:07:11.176Z,11.50
2018-03-15T18:09:41.810Z,10.13
2018-03-15T18:12:12.596Z,10.33
2018-03-15T18:14:43.168Z,11.70
2018-03-15T18:17:13.577Z,11.13
2018-03-15T18:19:44.941Z,10.80
2018-03-15T18:22:16.053Z,10.43
2018-03-15T18:24:46.809Z,10.97
2018-03-15T18:27:18.177Z,12.63
2018-03-15T18:29:48.681Z,9.70
2018-03-15T18:32:19.942Z,11.47
2018-03-15T18:34:50.605Z,10.63
2018-03-15T18:37:21.196Z,9.93
2018-03-15T18:39:52.388Z,13.70
2018-03-15T18:42:23.448Z,12.53
2018-03-15T18:44:54.080Z,12.87
2018-03-15T18:47:24.465Z,12.63
2018-03-15T18:49:54.890Z,12.40
2018-03-15T18:52:26.428Z,11.73
2018-03-15T18:54:56.976Z,14.33
2018-03-15T18:57:27.702Z,16.73
2018-03-15T18:59:58.165Z,11.40
2018-03-15T19:02:28.588Z,12.53
2018-03-15T19:04:59.034Z,13.37
2018-03-15T19:07:30.488Z,15.87
2018-03-15T19:10:03.554Z,14.97
2018-03-15T19:12:34.034Z,15.70
2018-03-15T19:15:04.836Z,16.13
2018-03-15T19:17:35.145Z,14.43
2018-03-15T19:20:05.951Z,18.87
2018-03-15T19:22:38.719Z,25.53
2018-03-15T19:25:09.359Z,37.77
2018-03-15T19:27:39.952Z,26.23
2018-03-15T19:30:12.249Z,19.27
2018-03-15T19:32:42.755Z,17.97
2018-03-15T19:35:14.132Z,15.43
2018-03-15T19:37:45.125Z,16.40
2018-03-15T19:40:21.087Z,14.27
2018-03-15T19:42:51.614Z,14.07
2018-03-15T19:45:22.082Z,16.17
2018-03-15T19:47:52.845Z,17.27
2018-03-15T19:50:23.861Z,18.37
2018-03-15T19:52:54.493Z,17.10
2018-03-15T19:55:24.941Z,18.60
2018-03-15T19:57:55.977Z,17.00
2018-03-15T20:00:26.843Z,15.63
2018-03-15T20:02:58.020Z,14.53
2018-03-15T20:05:29.254Z,13.97
2018-03-15T20:08:02.606Z,15.20
2018-03-15T20:10:34.550Z,16.07
2018-03-15T20:13:05.055Z,17.37
2018-03-15T20:15:41.308Z,18.27
2018-03-15T20:18:13.519Z,15.93
2018-03-15T20:20:44.040Z,16.43
2018-03-15T20:23:18.732Z,16.23
2018-03-15T20:25:49.558Z,18.47
2018-03-15T20:28:50.640Z,19.73
2018-03-15T20:31:21.997Z,17.40
2018-03-15T20:34:13.309Z,16.93
2018-03-15T20:36:49.610Z,17.03
2018-03-15T20:39:26.761Z,17.97
2018-03-15T20:42:02.230Z,16.67
2018-03-15T20:44:36.342Z,16.60
2018-03-15T20:49:18.450Z,20.53
2018-03-15T20:51:56.699Z,19.70
2018-03-15T20:54:33.152Z,20.73
2018-03-15T20:57:03.786Z,20.10
2018-03-15T20:59:34.685Z,22.73
2018-03-15T21:02:05.227Z,23.87
2018-03-15T21:04:35.702Z,21.23
2018-03-15T21:07:07.384Z,21.50
2018-03-15T21:09:37.978Z,24.40
2018-03-15T21:12:08.816Z,23.50
2018-03-15T21:14:39.514Z,24.67
2018-03-15T21:17:10.173Z,22.33
2018-03-15T21:19:40.843Z,20.80
2018-03-15T21:22:11.399Z,22.03
2018-03-15T21:24:42.071Z,19.70
2018-03-15T21:27:13.088Z,20.57
2018-03-15T21:29:43.868Z,22.57
2018-03-15T21:32:15.297Z,23.93
2018-03-15T21:34:45.991Z,19.80
2018-03-15T21:37:16.768Z,21.10
2018-03-15T21:39:47.436Z,18.57
2018-03-15T21:42:18.556Z,19.03
2018-03-15T21:44:49.232Z,19.40
2018-03-15T21:47:19.800Z,18.37
2018-03-15T21:49:50.411Z,19.67
2018-03-15T21:52:21.082Z,19.60
2018-03-15T21:54:52.740Z,16.73
2018-03-15T21:57:24.156Z,18.80
2018-03-15T21:59:54.860Z,18.63
2018-03-15T22:02:25.599Z,20.70
2018-03-15T22:04:56.623Z,19.27
2018-03-15T22:07:27.229Z,19.63
2018-03-15T22:09:58.973Z,18.63
2018-03-15T22:12:29.712Z,20.77
2018-03-15T22:15:00.765Z,18.00
2018-03-15T22:17:31.877Z,17.07
2018-03-15T22:20:02.777Z,19.23
2018-03-15T22:22:33.515Z,17.03
2018-03-15T22:25:04.372Z,19.07
2018-03-15T22:27:35.180Z,19.10
2018-03-15T22:30:06.074Z,18.33
2018-03-15T22:32:36.995Z,22.10
2018-03-15T22:35:07.801Z,17.30
2018-03-15T22:37:38.402Z,19.77
2018-03-15T22:40:10.738Z,18.10
2018-03-15T22:42:41.619Z,21.27
2018-03-15T22:45:12.245Z,20.07
2018-03-15T22:47:42.972Z,18.93
2018-03-15T22:50:14.672Z,18.73
2018-03-15T22:52:45.924Z,21.43
2018-03-15T22:55:16.562Z,22.17
2018-03-15T22:57:47.137Z,23.83
2018-03-15T23:00:19.799Z,23.80
2018-03-15T23:02:50.545Z,23.17
2018-03-15T23:05:22.253Z,24.00
2018-03-15T23:07:52.967Z,22.37
2018-03-15T23:10:24.379Z,25.90
2018-03-15T23:12:55.520Z,24.53
2018-03-15T23:15:26.502Z,25.67
2018-03-15T23:17:57.372Z,26.07
2018-03-15T23:20:28.326Z,22.27
2018-03-15T23:22:58.915Z,23.73
2018-03-15T23:25:30.198Z,25.30
2018-03-15T23:28:01.013Z,25.53
2018-03-15T23:30:31.621Z,21.93
2018-03-15T23:33:02.458Z,25.30
2018-03-15T23:35:33.454Z,24.47
2018-03-15T23:38:05.198Z,24.00
2018-03-15T23:40:36.293Z,26.07
2018-03-15T23:43:07.803Z,27.37
2018-03-15T23:45:38.863Z,26.63
2018-03-15T23:48:11.585Z,27.57
2018-03-15T23:50:43.812Z,27.20
2018-03-15T23:53:16.252Z,26.47
2018-03-15T23:55:47.411Z,28.40
2018-03-15T23:58:18.634Z,27.20
